Time;durP1;ratioP1;P1;durP2;ratioP2;P2;SDS_P1;SDS_P2;PMS_P1;PMS_P2;Temp;Humidity;BMP_temperature;BMP_pressure;BME280_temperature;BME280_humidity;BME280_pressure;Samples;Min_cycle;Max_cycle;Signal;HPM_P1;HPM_P2
2022/12/05 00:00:11;;;;;;;11.17;7.70;;;;;;;6.25;100.00;95550.19;5027786;28;20209;-81
2022/12/05 00:02:38;;;;;;;12.93;8.37;;;;;;;6.19;100.00;95545.69;5029982;28;20226;-80
2022/12/05 00:05:07;;;;;;;12.10;8.07;;;;;;;6.21;100.00;95552.28;5028001;28;20680;-79
2022/12/05 00:07:34;;;;;;;14.27;8.30;;;;;;;6.22;100.00;95553.91;5022762;28;20216;-78
2022/12/05 00:10:01;;;;;;;13.33;8.13;;;;;;;6.20;100.00;95555.84;5025542;28;20269;-78
2022/12/05 00:12:27;;;;;;;14.50;8.50;;;;;;;6.25;100.00;95550.19;5022785;28;20213;-78
2022/12/05 00:14:54;;;;;;;15.03;8.83;;;;;;;6.28;100.00;95553.22;5031881;28;20209;-79
2022/12/05 00:17:21;;;;;;;12.63;8.07;;;;;;;6.27;100.00;95561.13;5022796;28;20680;-79
2022/12/05 00:19:48;;;;;;;13.07;8.10;;;;;;;6.18;100.00;95551.81;5024094;28;20205;-78
2022/12/05 00:22:16;;;;;;;15.97;8.07;;;;;;;6.17;100.00;95548.47;5023910;28;20234;-79
2022/12/05 00:24:43;;;;;;;15.20;8.57;;;;;;;6.21;100.00;95552.28;5026147;28;20198;-78
2022/12/05 00:27:10;;;;;;;13.43;8.40;;;;;;;6.11;100.00;95556.88;5027718;28;20197;-79
2022/12/05 00:29:37;;;;;;;15.47;8.73;;;;;;;6.18;100.00;95568.09;5025104;28;20196;-79
2022/12/05 00:32:04;;;;;;;14.43;8.37;;;;;;;6.20;100.00;95570.53;5026435;28;20197;-79
2022/12/05 00:34:31;;;;;;;13.47;8.37;;;;;;;6.20;100.00;95573.91;5024150;28;20329;-80
2022/12/05 00:36:57;;;;;;;14.50;8.17;;;;;;;6.23;100.00;95570.97;5029033;28;20202;-80
2022/12/05 00:39:26;;;;;;;15.47;8.57;;;;;;;6.21;100.00;95569.53;5023325;28;20656;-79
2022/12/05 00:41:52;;;;;;;13.50;8.00;;;;;;;6.22;100.00;95569.41;5028135;28;20228;-80
2022/12/05 00:44:19;;;;;;;14.87;8.13;;;;;;;6.13;100.00;95564.44;5023600;28;20232;-80
2022/12/05 00:46:46;;;;;;;15.07;8.80;;;;;;;6.22;100.00;95571.16;5030119;28;20209;-81
2022/12/05 00:49:13;;;;;;;14.33;8.07;;;;;;;6.17;100.00;95563.94;5024660;28;20711;-80
2022/12/05 00:51:43;;;;;;;13.33;8.10;;;;;;;6.29;100.00;95561.78;5029048;28;20570;-81
2022/12/05 00:54:13;;;;;;;15.10;8.40;;;;;;;6.24;100.00;95561.47;5027855;28;20616;-80
2022/12/05 00:56:41;;;;;;;15.07;8.33;;;;;;;6.21;100.00;95557.44;5031919;28;21895;-81
2022/12/05 00:59:08;;;;;;;14.87;8.50;;;;;;;6.23;100.00;95550.34;5035268;28;20218;-80
2022/12/05 01:01:37;;;;;;;16.00;8.20;;;;;;;6.20;100.00;95549.88;5032753;28;20213;-79
2022/12/05 01:04:08;;;;;;;13.80;8.17;;;;;;;6.18;100.00;95544.06;5027351;28;20279;-79
2022/12/05 01:06:35;;;;;;;15.23;8.60;;;;;;;6.20;100.00;95542.94;5029186;28;20701;-78
2022/12/05 01:09:03;;;;;;;15.93;8.63;;;;;;;6.16;100.00;95546.84;5031031;28;20208;-79
2022/12/05 01:11:30;;;;;;;14.17;8.57;;;;;;;6.16;100.00;95543.44;5031894;28;20194;-79
2022/12/05 01:13:58;;;;;;;12.10;7.80;;;;;;;6.16;100.00;95546.84;5027000;28;20213;-79
2022/12/05 01:16:28;;;;;;;14.30;8.70;;;;;;;6.16;100.00;95535.72;5029394;28;20205;-79
2022/12/05 01:18:55;;;;;;;15.70;8.47;;;;;;;6.13;100.00;95536.84;5030331;28;20221;-79
2022/12/05 01:21:22;;;;;;;13.70;8.03;;;;;;;6.15;100.00;95541.81;5029688;28;20225;-78
2022/12/05 01:23:49;;;;;;;14.50;8.20;;;;;;;6.06;100.00;95540.28;5029539;28;20203;-78
2022/12/05 01:26:18;;;;;;;16.90;9.23;;;;;;;6.08;100.00;95535.75;5027938;28;20201;-78
2022/12/05 01:28:45;;;;;;;14.90;8.47;;;;;;;6.10;100.00;95528.63;5027636;28;20216;-79
2022/12/05 01:31:21;;;;;;;15.73;8.43;;;;;;;6.05;100.00;95536.09;5029625;28;20205;-79
2022/12/05 01:33:47;;;;;;;15.30;8.27;;;;;;;6.06;100.00;95527.38;5028422;28;20233;-79
2022/12/05 01:36:14;;;;;;;14.77;8.10;;;;;;;5.99;100.00;95516.91;5025324;28;20210;-79
2022/12/05 01:38:42;;;;;;;15.43;8.57;;;;;;;6.07;100.00;95524.63;5033353;28;20198;-79
2022/12/05 01:41:12;;;;;;;14.80;8.70;;;;;;;6.09;100.00;95520.09;5028484;28;20224;-78
2022/12/05 01:43:54;;;;;;;17.80;8.87;;;;;;;5.98;100.00;95512.72;5028900;28;20217;-79
2022/12/05 01:46:22;;;;;;;15.37;8.40;;;;;;;5.94;100.00;95518.41;5028138;28;20209;-81
2022/12/05 01:48:50;;;;;;;16.13;8.43;;;;;;;5.98;100.00;95519.66;5035096;28;20296;-79
2022/12/05 01:51:17;;;;;;;14.27;8.20;;;;;;;5.95;100.00;95520.00;5035649;28;20201;-80
2022/12/05 01:53:44;;;;;;;15.03;9.13;;;;;;;5.94;100.00;95521.78;5031838;28;20203;-79
2022/12/05 01:56:13;;;;;;;16.10;8.77;;;;;;;5.92;100.00;95513.41;5031017;28;20201;-78
2022/12/05 01:58:42;;;;;;;14.93;8.80;;;;;;;5.87;100.00;95504.56;5028974;28;20201;-79
2022/12/05 02:01:08;;;;;;;15.20;8.60;;;;;;;5.95;100.00;95520.00;5026657;28;20216;-78
2022/12/05 02:03:38;;;;;;;15.87;8.73;;;;;;;5.96;100.00;95498.38;5025106;28;21024;-77
2022/12/05 02:06:05;;;;;;;15.40;8.30;;;;;;;5.99;100.00;95514.34;5027154;28;21378;-78
2022/12/05 02:08:32;;;;;;;15.27;8.47;;;;;;;5.95;100.00;95520.00;5037166;28;20335;-79
2022/12/05 02:10:59;;;;;;;15.83;9.33;;;;;;;5.87;100.00;95525.19;5031564;28;20203;-78
2022/12/05 02:13:48;;;;;;;15.27;8.67;;;;;;;5.78;100.00;95516.66;5030407;28;20212;-78
2022/12/05 02:16:24;;;;;;;20.63;9.37;;;;;;;5.66;100.00;95518.78;5032015;28;20201;-78
2022/12/05 02:19:14;;;;;;;15.13;8.87;;;;;;;5.84;100.00;95528.06;5029186;28;20212;-78
2022/12/05 02:22:01;;;;;;;17.57;9.43;;;;;;;5.85;100.00;95520.22;5039795;28;20656;-80
2022/12/05 02:25:01;;;;;;;17.17;9.47;;;;;;;5.90;100.00;95517.13;5031181;28;20583;-80
2022/12/05 02:28:09;;;;;;;18.20;9.13;;;;;;;5.97;100.00;95516.28;5034531;28;20743;-79
2022/12/05 02:30:41;;;;;;;17.30;9.83;;;;;;;6.03;100.00;95519.97;5028879;28;20193;-80
2022/12/05 02:33:18;;;;;;;16.23;9.10;;;;;;;6.05;100.00;95518.03;5032080;28;20219;-77
2022/12/05 02:35:54;;;;;;;14.83;8.50;;;;;;;6.14;100.00;95522.19;5028032;28;20220;-78
2022/12/05 02:38:29;;;;;;;15.60;9.13;;;;;;;6.13;100.00;95508.47;5027562;28;20208;-79
2022/12/05 02:41:10;;;;;;;15.63;9.37;;;;;;;6.15;100.00;95503.13;5028916;28;20199;-78
2022/12/05 02:43:42;;;;;;;15.50;8.87;;;;;;;6.22;100.00;95506.66;5028171;28;20200;-79
2022/12/05 02:46:12;;;;;;;16.37;8.43;;;;;;;6.17;100.00;95507.16;5028621;28;20209;-78
2022/12/05 02:48:42;;;;;;;14.70;8.63;;;;;;;6.08;100.00;95487.53;5032210;28;20202;-79
2022/12/05 02:51:13;;;;;;;15.83;8.53;;;;;;;6.05;100.00;95500.78;5026620;28;20202;-78
2022/12/05 02:53:42;;;;;;;16.13;8.70;;;;;;;5.99;100.00;95495.47;5023846;28;20600;-77
2022/12/05 02:56:10;;;;;;;14.47;8.33;;;;;;;6.07;100.00;95506.56;5028030;28;20237;-78
2022/12/05 02:58:42;;;;;;;16.67;9.20;;;;;;;6.15;100.00;95505.69;5031257;28;20668;-78
2022/12/05 03:01:10;;;;;;;16.50;8.57;;;;;;;6.04;100.00;95503.50;5026630;28;20202;-78
2022/12/05 03:03:37;;;;;;;14.67;7.90;;;;;;;6.02;100.00;95503.69;5025699;28;20230;-77
2022/12/05 03:06:09;;;;;;;18.00;8.97;;;;;;;6.03;100.00;95504.50;5032883;28;20217;-79
2022/12/05 03:08:42;;;;;;;15.63;8.77;;;;;;;6.05;100.00;95500.78;5038212;28;20193;-78
2022/12/05 03:11:09;;;;;;;14.20;8.00;;;;;;;6.02;100.00;95498.53;5028763;28;20256;-77
2022/12/05 03:13:41;;;;;;;15.67;8.67;;;;;;;6.01;100.00;95496.09;5028935;28;20216;-77
2022/12/05 03:16:15;;;;;;;13.97;8.17;;;;;;;6.07;100.00;95503.16;5028585;28;20202;-81
2022/12/05 03:18:47;;;;;;;15.90;8.77;;;;;;;6.12;100.00;95498.28;5033872;28;20205;-80
2022/12/05 03:21:25;;;;;;;16.90;9.20;;;;;;;6.14;100.00;95504.91;5026658;28;20202;-77
2022/12/05 03:23:56;;;;;;;17.23;9.07;;;;;;;6.14;100.00;95498.94;5026050;28;20608;-78
2022/12/05 03:26:36;;;;;;;16.67;9.60;;;;;;;6.17;100.00;95502.00;5028504;28;20562;-82
2022/12/05 03:29:19;;;;;;;17.80;8.73;;;;;;;6.19;100.00;95509.56;5028223;28;20289;-81
2022/12/05 03:31:58;;;;;;;14.93;9.07;;;;;;;6.23;100.00;95514.19;5030518;28;20212;-81
2022/12/05 03:34:48;;;;;;;15.23;8.67;;;;;;;6.26;100.00;95510.50;5054171;22;20773;-81
2022/12/05 03:37:21;;;;;;;16.43;8.93;;;;;;;6.23;100.00;95516.78;5025163;28;20259;-80
2022/12/05 03:39:54;;;;;;;15.83;8.90;;;;;;;6.19;100.00;95507.78;5025376;28;20209;-81
2022/12/05 03:42:31;;;;;;;16.43;8.73;;;;;;;6.19;100.00;95515.53;5025959;28;20230;-81
2022/12/05 03:45:01;;;;;;;16.30;9.30;;;;;;;6.21;100.00;95507.59;5028743;28;20220;-80
2022/12/05 03:47:39;;;;;;;15.07;9.03;;;;;;;6.23;100.00;95510.84;5025415;28;20230;-80
2022/12/05 03:50:11;;;;;;;18.73;10.47;;;;;;;6.28;100.00;95506.78;5027348;28;20209;-80
2022/12/05 03:52:45;;;;;;;15.50;9.00;;;;;;;6.31;100.00;95515.94;5023944;28;20208;-81
2022/12/05 03:55:13;;;;;;;21.13;9.37;;;;;;;6.26;100.00;95507.91;5026373;28;20684;-80
2022/12/05 03:57:46;;;;;;;14.43;8.10;;;;;;;6.24;100.00;95509.84;5018383;28;20497;-80
2022/12/05 04:00:17;;;;;;;15.17;8.43;;;;;;;6.29;100.00;95512.75;5022589;28;20197;-80
2022/12/05 04:02:49;;;;;;;13.53;7.73;;;;;;;6.21;100.00;95513.56;5022613;28;20890;-81
2022/12/05 04:05:20;;;;;;;17.13;8.27;;;;;;;6.23;100.00;95508.25;5026450;28;20197;-80
2022/12/05 04:07:51;;;;;;;14.03;7.97;;;;;;;6.27;100.00;95504.34;5023663;28;20247;-80
2022/12/05 04:10:24;;;;;;;15.40;8.93;;;;;;;6.25;100.00;95507.13;5023240;28;20191;-80
2022/12/05 04:12:54;;;;;;;15.90;8.67;;;;;;;6.25;100.00;95501.94;5020902;28;20205;-80
2022/12/05 04:15:26;;;;;;;14.20;7.53;;;;;;;6.22;100.00;95486.81;5025096;28;20297;-80
2022/12/05 04:17:57;;;;;;;15.83;8.90;;;;;;;6.24;100.00;95489.19;5021390;28;20687;-79
2022/12/05 04:23:14;;;;;;;14.37;7.97;;;;;;;6.24;100.00;95484.03;5023038;28;20351;-80
2022/12/05 04:26:00;;;;;;;16.43;8.77;;;;;;;6.26;100.00;95472.56;5025866;28;20228;-80
2022/12/05 04:28:32;;;;;;;16.80;8.97;;;;;;;6.24;100.00;95476.31;5025385;28;20193;-80
2022/12/05 04:31:05;;;;;;;15.67;8.63;;;;;;;6.27;100.00;95486.28;5023109;28;20198;-81
2022/12/05 04:33:41;;;;;;;14.93;8.63;;;;;;;6.20;100.00;95480.22;5022114;28;20198;-78
2022/12/05 04:36:15;;;;;;;17.87;8.90;;;;;;;6.25;100.00;95496.78;5018284;28;20279;-78
2022/12/05 04:38:46;;;;;;;17.83;9.40;;;;;;;6.20;100.00;95493.13;5018918;28;20217;-78
2022/12/05 04:41:17;;;;;;;17.00;9.23;;;;;;;6.27;100.00;95492.25;5018037;28;20201;-78
2022/12/05 04:43:46;;;;;;;15.27;8.33;;;;;;;6.28;100.00;95490.47;5021116;28;20587;-77
2022/12/05 04:46:16;;;;;;;17.57;8.83;;;;;;;6.15;100.00;95500.53;5022622;28;20197;-77
2022/12/05 04:48:50;;;;;;;17.10;9.30;;;;;;;6.17;100.00;95503.78;5018144;28;20194;-78
2022/12/05 04:51:21;;;;;;;19.83;9.20;;;;;;;6.16;100.00;95500.38;5019345;28;20202;-80
2022/12/05 04:53:53;;;;;;;17.77;8.97;;;;;;;6.18;100.00;95497.63;5024035;28;20738;-80
2022/12/05 04:56:22;;;;;;;19.53;10.10;;;;;;;6.20;100.00;95503.44;5025391;28;20205;-81
2022/12/05 04:58:49;;;;;;;20.47;10.03;;;;;;;6.19;100.00;95496.66;5026024;28;20205;-80
2022/12/05 05:01:19;;;;;;;17.97;9.37;;;;;;;6.20;100.00;95517.13;5025491;28;20201;-81
2022/12/05 05:03:53;;;;;;;20.10;9.50;;;;;;;6.14;100.00;95504.13;5024650;28;20222;-80
2022/12/05 05:06:19;;;;;;;20.83;9.33;;;;;;;6.13;100.00;95511.03;5027497;28;20193;-80
2022/12/05 05:08:49;;;;;;;22.37;10.43;;;;;;;6.17;100.00;95511.53;5026277;28;20206;-79
2022/12/05 05:11:19;;;;;;;19.97;9.67;;;;;;;6.19;100.00;95518.13;5025978;28;20226;-80
2022/12/05 05:13:46;;;;;;;17.80;9.57;;;;;;;6.22;100.00;95514.38;5020772;28;20190;-77
2022/12/05 05:16:16;;;;;;;22.07;9.93;;;;;;;6.40;100.00;95527.03;5023533;28;20199;-76
2022/12/05 05:18:43;;;;;;;19.07;9.23;;;;;;;6.39;100.00;95528.00;5023689;28;20198;-78
2022/12/05 05:21:18;;;;;;;18.77;9.53;;;;;;;6.29;100.00;95529.00;5017349;28;20673;-78
2022/12/05 05:23:45;;;;;;;22.20;10.60;;;;;;;6.32;100.00;95533.03;5017595;28;20206;-81
2022/12/05 05:26:12;;;;;;;22.17;9.50;;;;;;;6.25;100.00;95540.66;5022820;28;20559;-80
2022/12/05 05:28:39;;;;;;;18.10;9.47;;;;;;;6.23;100.00;95528.91;5026026;28;20267;-80
2022/12/05 05:31:06;;;;;;;19.37;10.23;;;;;;;6.31;100.00;95538.38;5025934;28;20663;-81
2022/12/05 05:33:34;;;;;;;19.10;9.40;;;;;;;6.21;100.00;95534.22;5022421;28;20207;-80
2022/12/05 05:36:03;;;;;;;19.33;10.10;;;;;;;6.29;100.00;95535.97;5021002;28;20226;-81
2022/12/05 05:38:34;;;;;;;18.20;9.40;;;;;;;6.35;100.00;95539.66;5025300;28;20198;-79
2022/12/05 05:41:01;;;;;;;18.50;9.97;;;;;;;6.34;100.00;95538.03;5026970;28;20202;-80
2022/12/05 05:43:28;;;;;;;20.87;9.60;;;;;;;6.36;100.00;95536.09;5026282;28;20226;-81
2022/12/05 05:45:55;;;;;;;23.60;10.20;;;;;;;6.39;100.00;95541.72;5027445;28;20206;-80
2022/12/05 05:48:22;;;;;;;19.47;10.00;;;;;;;6.34;100.00;95525.94;5024232;28;20246;-80
2022/12/05 05:50:49;;;;;;;18.63;10.40;;;;;;;6.39;100.00;95533.16;5028020;28;20203;-79
2022/12/05 05:53:15;;;;;;;19.40;9.67;;;;;;;6.38;100.00;95547.06;5027087;28;20191;-78
2022/12/05 05:55:44;;;;;;;17.40;9.03;;;;;;;6.29;100.00;95556.63;5027610;28;20687;-80
2022/12/05 05:58:10;;;;;;;21.83;9.57;;;;;;;6.26;100.00;95541.47;5026590;28;20209;-79
2022/12/05 06:00:37;;;;;;;18.97;9.20;;;;;;;6.31;100.00;95552.09;5030368;28;20212;-83
2022/12/05 06:03:04;;;;;;;19.77;8.87;;;;;;;6.35;100.00;95555.91;5027356;28;20227;-80
2022/12/05 06:05:31;;;;;;;19.03;9.63;;;;;;;6.37;100.00;95548.03;5028373;28;20483;-78
2022/12/05 06:07:58;;;;;;;19.13;9.17;;;;;;;6.37;100.00;95555.75;5016269;28;20210;-83
2022/12/05 06:10:25;;;;;;;19.57;9.47;;;;;;;6.32;100.00;95555.47;5007370;28;20263;-84
2022/12/05 06:12:53;;;;;;;19.97;10.10;;;;;;;6.35;100.00;95558.50;5026546;28;20216;-84
2022/12/05 06:15:20;;;;;;;21.10;10.13;;;;;;;6.36;100.00;95552.38;5027194;28;20197;-84
2022/12/05 06:17:47;;;;;;;18.07;9.57;;;;;;;6.36;100.00;95551.56;5022090;28;20794;-82
2022/12/05 06:20:13;;;;;;;15.63;9.13;;;;;;;6.46;100.00;95565.88;5021439;28;20202;-78
2022/12/05 06:22:40;;;;;;;16.50;9.53;;;;;;;6.49;100.00;95564.75;5020292;28;20229;-77
2022/12/05 06:25:08;;;;;;;24.77;9.93;;;;;;;6.47;100.00;95562.31;5023218;28;20225;-77
2022/12/05 06:27:35;;;;;;;17.90;9.17;;;;;;;6.50;100.00;95550.84;5020027;28;20723;-83
2022/12/05 06:30:04;;;;;;;16.23;9.10;;;;;;;6.47;100.00;95541.66;5021165;28;20202;-78
2022/12/05 06:32:31;;;;;;;19.30;9.47;;;;;;;6.54;100.00;95555.50;5016647;28;20201;-79
2022/12/05 06:34:58;;;;;;;17.63;9.17;;;;;;;6.56;100.00;95548.38;5020860;28;20237;-78
2022/12/05 06:37:25;;;;;;;16.97;9.57;;;;;;;6.59;100.00;95567.91;5019407;28;20664;-77
2022/12/05 06:39:52;;;;;;;20.40;10.37;;;;;;;6.44;100.00;95552.31;5019584;28;20210;-78
2022/12/05 06:42:21;;;;;;;18.93;9.57;;;;;;;6.51;100.00;95562.78;5022857;28;20213;-77
2022/12/05 06:44:48;;;;;;;18.83;9.47;;;;;;;6.61;100.00;95569.31;5020128;28;20202;-79
2022/12/05 06:47:16;;;;;;;19.53;10.10;;;;;;;6.59;100.00;95560.16;5022284;28;20202;-78
2022/12/05 06:49:43;;;;;;;19.40;9.87;;;;;;;6.69;100.00;95560.75;5015238;28;20199;-77
2022/12/05 06:52:11;;;;;;;18.53;10.10;;;;;;;6.70;100.00;95568.31;5018218;28;20206;-85
2022/12/05 06:54:38;;;;;;;22.20;10.73;;;;;;;6.69;100.00;95566.72;5020339;28;20197;-85
2022/12/05 06:57:05;;;;;;;21.23;10.00;;;;;;;6.69;100.00;95565.91;5019012;28;20198;-86
2022/12/05 06:59:32;;;;;;;19.23;10.47;;;;;;;6.62;100.00;95563.19;5023308;28;20634;-83
2022/12/05 07:01:59;;;;;;;16.80;9.43;;;;;;;6.64;100.00;95563.81;5021221;28;20199;-78
2022/12/05 07:04:27;;;;;;;15.70;9.23;;;;;;;6.65;100.00;95568.03;5019914;28;20233;-83
2022/12/05 07:06:56;;;;;;;17.90;9.47;;;;;;;6.64;100.00;95553.50;5020351;28;20218;-83
2022/12/05 07:09:44;;;;;;;18.13;8.93;;;;;;;6.60;100.00;95567.75;5019787;28;20197;-84
2022/12/05 07:12:11;;;;;;;18.87;8.13;;;;;;;6.67;100.00;95575.59;5020565;28;20203;-84
2022/12/05 07:14:38;;;;;;;17.17;9.57;;;;;;;6.52;100.00;95572.16;5020222;28;20269;-77
2022/12/05 07:17:05;;;;;;;14.73;8.63;;;;;;;6.56;100.00;95563.06;5015235;28;20669;-77
2022/12/05 07:19:33;;;;;;;17.30;9.53;;;;;;;6.56;100.00;95576.78;5018438;28;20195;-77
2022/12/05 07:22:00;;;;;;;18.07;8.60;;;;;;;6.66;100.00;95576.59;5020905;28;20205;-83
2022/12/05 07:24:27;;;;;;;17.23;8.80;;;;;;;6.69;100.00;95576.25;5026320;28;20233;-82
2022/12/05 07:26:54;;;;;;;16.83;8.83;;;;;;;6.61;100.00;95579.66;5024091;28;20209;-83
2022/12/05 07:29:21;;;;;;;15.83;8.40;;;;;;;6.69;100.00;95573.66;5003591;28;20206;-81
2022/12/05 07:31:48;;;;;;;14.50;8.73;;;;;;;6.75;100.00;95571.19;4958312;28;20632;-84
2022/12/05 07:34:15;;;;;;;18.17;8.70;;;;;;;6.72;100.00;95578.47;5023926;28;20203;-82
2022/12/05 07:36:43;;;;;;;16.80;8.97;;;;;;;6.81;100.00;95595.53;5021132;28;20210;-83
2022/12/05 07:39:10;;;;;;;16.17;9.20;;;;;;;6.82;100.00;95591.97;5021073;28;20203;-82
2022/12/05 07:41:37;;;;;;;15.57;9.17;;;;;;;6.79;100.00;95585.38;5021909;28;20222;-79
2022/12/05 07:44:04;;;;;;;15.10;8.50;;;;;;;6.68;100.00;95566.88;5018408;28;20233;-79
2022/12/05 07:46:30;;;;;;;18.83;8.97;;;;;;;6.79;100.00;95585.38;5016904;28;20202;-83
2022/12/05 07:48:58;;;;;;;16.73;9.47;;;;;;;6.81;100.00;95577.47;5024577;28;20201;-84
2022/12/05 07:51:24;;;;;;;17.70;8.97;;;;;;;6.86;100.00;95588.06;5024436;28;20206;-75
2022/12/05 07:53:53;;;;;;;16.40;9.17;;;;;;;6.83;100.00;95589.22;5017072;28;20217;-75
2022/12/05 07:56:20;;;;;;;17.03;9.60;;;;;;;6.85;100.00;95583.88;5014525;28;20199;-77
2022/12/05 07:58:49;;;;;;;22.33;10.67;;;;;;;6.84;100.00;95583.06;5015322;28;20941;-76
2022/12/05 08:01:17;;;;;;;20.13;10.20;;;;;;;6.90;100.00;95581.56;5015099;28;20376;-76
2022/12/05 08:03:45;;;;;;;20.37;10.40;;;;;;;6.93;100.00;95580.41;5020616;28;20656;-77
2022/12/05 08:06:13;;;;;;;16.40;10.23;;;;;;;6.96;100.00;95567.97;5018291;28;20198;-76
2022/12/05 08:08:40;;;;;;;19.23;10.00;;;;;;;6.99;100.00;95580.53;5018960;28;20198;-76
2022/12/05 08:11:11;;;;;;;17.10;9.97;;;;;;;7.05;100.00;95587.59;5018284;28;20197;-76
2022/12/05 08:13:38;;;;;;;16.83;9.47;;;;;;;6.93;100.00;95585.59;5019347;28;20206;-76
2022/12/05 08:16:08;;;;;;;19.13;9.70;;;;;;;6.98;100.00;95593.66;5019188;28;20194;-76
2022/12/05 08:18:35;;;;;;;16.53;10.13;;;;;;;7.00;100.00;95584.75;5018225;28;20637;-76
2022/12/05 08:21:02;;;;;;;15.17;9.37;;;;;;;6.98;100.00;95591.88;5017808;28;20195;-76
2022/12/05 08:23:30;;;;;;;18.40;9.80;;;;;;;7.04;100.00;95590.38;5018835;28;20273;-77
2022/12/05 08:26:00;;;;;;;16.23;9.70;;;;;;;7.12;100.00;95591.13;5020182;28;20210;-77
2022/12/05 08:28:28;;;;;;;17.87;10.07;;;;;;;7.09;100.00;95590.66;5020322;28;20222;-74
2022/12/05 08:30:55;;;;;;;15.80;9.77;;;;;;;7.15;100.00;95589.97;5019054;28;20214;-75
2022/12/05 08:33:22;;;;;;;16.00;9.80;;;;;;;7.20;100.00;95587.66;5017905;28;20198;-76
2022/12/05 08:35:49;;;;;;;20.33;10.53;;;;;;;7.17;100.00;95575.09;5018200;28;20304;-76
2022/12/05 08:38:16;;;;;;;18.27;10.57;;;;;;;7.24;100.00;95591.50;5025898;28;20200;-81
2022/12/05 08:40:43;;;;;;;19.07;10.57;;;;;;;7.22;100.00;95585.69;5023641;28;20205;-83
2022/12/05 08:43:09;;;;;;;19.03;10.40;;;;;;;7.24;100.00;95596.69;5023458;28;21940;-83
2022/12/05 08:45:38;;;;;;;20.90;10.67;;;;;;;7.25;100.00;95580.19;5023410;28;20620;-75
2022/12/05 08:48:05;;;;;;;18.83;11.10;;;;;;;7.22;100.00;95583.91;5019588;28;20197;-85
2022/12/05 08:50:32;;;;;;;20.43;11.47;;;;;;;7.22;100.00;95581.34;5022203;28;20191;-85
2022/12/05 08:52:59;;;;;;;16.40;9.60;;;;;;;6.98;100.00;95586.72;5023935;28;20867;-84
2022/12/05 08:55:25;;;;;;;15.33;9.47;;;;;;;6.72;100.00;95589.59;5025425;28;20864;-81
2022/12/05 08:57:52;;;;;;;17.20;9.47;;;;;;;6.42;100.00;95577.50;5022399;28;20216;-76
2022/12/05 09:00:20;;;;;;;17.93;9.97;;;;;;;6.34;100.00;95579.34;5017002;28;20586;-76
2022/12/05 09:02:51;;;;;;;17.17;9.70;;;;;;;6.42;100.00;95579.28;5017669;28;20762;-77
2022/12/05 09:05:18;;;;;;;20.13;10.30;;;;;;;6.52;100.00;95574.72;5020230;28;20245;-76
2022/12/05 09:07:45;;;;;;;20.83;9.40;;;;;;;6.64;100.00;95588.84;5016276;28;20194;-77
2022/12/05 09:10:12;;;;;;;15.83;9.50;;;;;;;6.56;100.00;95581.97;5019517;28;20241;-76
2022/12/05 09:12:39;;;;;;;16.37;9.50;;;;;;;6.41;100.00;95581.06;5019017;28;20656;-77
2022/12/05 09:15:08;;;;;;;18.97;9.03;;;;;;;6.51;100.00;95583.44;5019847;28;20291;-77
2022/12/05 09:17:35;;;;;;;13.53;8.73;;;;;;;6.55;100.00;95580.34;5026855;28;20196;-76
2022/12/05 09:20:04;;;;;;;13.77;8.60;;;;;;;6.76;100.00;95583.13;5022440;28;20210;-77
2022/12/05 09:22:31;;;;;;;17.53;8.93;;;;;;;6.76;100.00;95577.16;5024586;28;20198;-77
2022/12/05 09:24:59;;;;;;;16.30;8.20;;;;;;;6.57;100.00;95575.81;5022155;28;20586;-77
2022/12/05 09:27:26;;;;;;;13.77;8.70;;;;;;;6.58;100.00;95569.66;5026734;28;20716;-78
2022/12/05 09:29:53;;;;;;;16.77;9.03;;;;;;;6.64;100.00;95571.56;5021974;28;20223;-77
2022/12/05 09:32:20;;;;;;;13.03;8.50;;;;;;;6.77;100.00;95566.66;5026771;28;20297;-76
2022/12/05 09:34:46;;;;;;;11.77;7.60;;;;;;;6.92;100.00;95568.50;5026089;28;20234;-77
2022/12/05 09:37:20;;;;;;;11.30;7.33;;;;;;;6.95;100.00;95552.66;5023799;28;20207;-78
2022/12/05 09:39:47;;;;;;;13.37;7.33;;;;;;;6.85;100.00;95551.09;5026378;28;20213;-77
2022/12/05 09:42:29;;;;;;;15.77;8.13;;;;;;;6.61;100.00;95553.84;5026134;28;20574;-78
2022/12/05 09:45:13;;;;;;;16.17;7.80;;;;;;;6.69;100.00;95561.56;5025434;28;20199;-77
2022/12/05 09:47:48;;;;;;;14.97;7.87;;;;;;;6.78;100.00;95554.56;5021771;28;20256;-79
2022/12/05 09:50:20;;;;;;;15.03;8.13;;;;;;;6.88;100.00;95549.94;5027623;28;20190;-78
2022/12/05 09:53:08;;;;;;;16.53;9.07;;;;;;;6.96;100.00;95552.47;5026491;28;20209;-78
2022/12/05 09:55:44;;;;;;;22.00;8.33;;;;;;;7.06;100.00;95545.28;5024230;28;20260;-76
2022/12/05 09:58:25;;;;;;;14.87;7.80;;;;;;;7.15;100.00;95538.28;5023516;28;20198;-77
2022/12/05 10:00:59;;;;;;;14.27;8.53;;;;;;;7.26;100.00;95543.81;5023600;28;20197;-77
2022/12/05 10:03:33;;;;;;;14.73;7.90;;;;;;;7.37;100.00;95540.00;5021522;28;20204;-77
2022/12/05 10:06:11;;;;;;;16.43;7.47;;;;;;;7.46;100.00;95532.97;5026345;28;20692;-75
2022/12/05 10:08:54;;;;;;;13.80;8.30;;;;;;;7.52;100.00;95534.84;5023898;28;20269;-74
2022/12/05 10:11:28;;;;;;;11.80;7.73;;;;;;;7.59;100.00;95530.59;5024232;28;20195;-75
2022/12/05 10:14:02;;;;;;;14.67;8.47;;;;;;;7.60;100.00;95540.75;5022820;28;20195;-75
2022/12/05 10:16:32;;;;;;;13.87;8.30;;;;;;;7.65;100.00;95532.44;5021969;28;20191;-76
2022/12/05 10:19:03;;;;;;;15.80;9.53;;;;;;;7.74;100.00;95542.53;5022774;28;20203;-76
2022/12/05 10:21:33;;;;;;;15.97;9.57;;;;;;;7.68;100.00;95535.47;5024315;28;20199;-83
2022/12/05 10:24:04;;;;;;;14.93;9.40;;;;;;;7.69;100.00;95538.88;5028478;28;20376;-84
2022/12/05 10:26:36;;;;;;;13.93;8.20;;;;;;;7.74;100.00;95534.78;5029952;28;20195;-83
2022/12/05 10:29:16;;;;;;;13.33;7.60;;;;;;;7.81;100.00;95537.44;5029766;28;20210;-83
2022/12/05 10:31:44;;;;;;;11.70;7.60;;;;;;;7.79;100.00;95536.84;5030109;28;21007;-83
2022/12/05 10:34:17;;;;;;;14.53;6.87;;;;;;;7.78;100.00;95530.06;5032054;28;20210;-83
2022/12/05 10:36:54;;;;;;;14.40;7.53;;;;;;;7.79;100.00;95524.69;5029733;28;20200;-83
2022/12/05 10:39:23;;;;;;;13.23;7.50;;;;;;;7.84;100.00;95531.91;5028531;28;20187;-85
2022/12/05 10:41:50;;;;;;;14.73;7.37;;;;;;;7.87;100.00;95524.59;5026012;28;20203;-83
2022/12/05 10:44:17;;;;;;;14.73;7.90;;;;;;;7.89;100.00;95519.25;5027398;28;20214;-79
2022/12/05 10:46:46;;;;;;;15.13;8.13;;;;;;;7.63;100.00;95514.53;5025898;28;20223;-82
2022/12/05 10:49:15;;;;;;;13.57;7.77;;;;;;;7.27;100.00;95503.28;5031015;28;20289;-83
2022/12/05 10:51:43;;;;;;;16.40;9.17;;;;;;;6.99;100.00;95515.13;5029632;28;20742;-83
2022/12/05 10:54:17;;;;;;;19.87;9.53;;;;;;;7.02;100.00;95512.19;5030635;28;20199;-83
2022/12/05 10:56:47;;;;;;;16.67;9.60;;;;;;;7.11;100.00;95511.16;5029969;28;20248;-83
2022/12/05 10:59:16;;;;;;;21.57;10.30;;;;;;;7.03;100.00;95499.13;5029193;28;20218;-81
2022/12/05 11:01:48;;;;;;;17.53;9.67;;;;;;;6.88;100.00;95513.78;5029742;28;20289;-81
2022/12/05 11:04:23;;;;;;;15.30;9.20;;;;;;;6.85;100.00;95504.59;5028298;28;20296;-80
2022/12/05 11:06:53;;;;;;;18.00;10.30;;;;;;;6.92;100.00;95506.50;5029801;28;20226;-82
2022/12/05 11:09:22;;;;;;;16.17;9.80;;;;;;;7.04;100.00;95502.50;5024711;28;20615;-82
2022/12/05 11:12:14;;;;;;;15.60;9.53;;;;;;;7.11;100.00;95498.22;5028032;28;20244;-82
2022/12/05 11:14:53;;;;;;;15.13;9.43;;;;;;;7.23;100.00;95496.84;5028192;28;20221;-83
2022/12/05 11:17:24;;;;;;;15.07;9.20;;;;;;;7.35;100.00;95493.66;5024581;28;20241;-83
2022/12/05 11:19:51;;;;;;;17.87;9.20;;;;;;;7.41;100.00;95492.13;5025211;28;20210;-83
2022/12/05 11:22:17;;;;;;;22.27;9.03;;;;;;;7.50;100.00;95493.66;5029579;28;20700;-83
2022/12/05 11:24:44;;;;;;;13.47;8.87;;;;;;;7.60;100.00;95493.38;5030056;28;20223;-83
2022/12/05 11:27:28;;;;;;;17.80;9.33;;;;;;;7.63;100.00;95486.06;5028715;28;20206;-83
2022/12/05 11:29:59;;;;;;;13.60;8.93;;;;;;;7.70;100.00;95492.16;5027783;28;20200;-82
2022/12/05 11:32:28;;;;;;;17.73;9.20;;;;;;;7.70;100.00;95479.22;5024740;28;20202;-82
2022/12/05 11:35:04;;;;;;;17.43;10.00;;;;;;;7.75;100.00;95478.66;5027836;28;20610;-82
2022/12/05 11:37:38;;;;;;;18.13;9.30;;;;;;;7.85;100.00;95474.03;5029663;28;20202;-83
2022/12/05 11:40:16;;;;;;;13.93;8.20;;;;;;;7.82;100.00;95469.97;5027686;28;20245;-84